Agudo, Brazil
Current Conditions -  °F | °C
As of 12:00 PM on Friday 31 Oct 2014 (Local Time) from SBSM Reporting Station
Few Clouds Few Clouds  
Wind Chill: 75°   Ceiling: Unl
Heat Index: 75°   Visibility: 6mi
Dew Point: 66°   Wind: 13mph
Humidity: 73%   Direction: 110°ESE
Pressure: 29.88"   Gusts: NA
Location:  29.65°S, 53.24°W
Report Text: SBSM 311400Z 11011KT 9999 FEW030 24/19 Q1012
Loading
Personal Weather Stations






























Interactive Weather Map
Tropical Storm Tracking
New forecast layout! Learn more

10-Day Weather Forecast

Advertisements
Track Severe Weather on mobile